createdAt,value
2023-05-05T00:03:00.897Z,100719.16
2023-05-05T00:06:07.366Z,100717.50
2023-05-05T00:09:22.014Z,100720.81
2023-05-05T00:12:31.273Z,100713.19
2023-05-05T00:15:39.559Z,100712.84
2023-05-05T00:18:52.490Z,100721.84
2023-05-05T00:21:56.540Z,100720.34
2023-05-05T00:25:02.057Z,100718.19
2023-05-05T00:28:06.428Z,100722.94
2023-05-05T00:31:17.659Z,100717.69
2023-05-05T00:34:23.281Z,100712.56
2023-05-05T00:37:36.101Z,100717.44
2023-05-05T00:40:44.184Z,100703.12
2023-05-05T00:43:49.946Z,100717.06
2023-05-05T00:46:54.080Z,100705.16
2023-05-05T00:49:56.863Z,100708.56
2023-05-05T00:53:02.832Z,100709.41
2023-05-05T00:56:08.781Z,100703.06
2023-05-05T00:59:13.854Z,100707.25
2023-05-05T01:02:22.541Z,100704.34
2023-05-05T01:05:36.846Z,100706.44
2023-05-05T01:09:03.112Z,100700.72
2023-05-05T01:12:24.466Z,100693.31
2023-05-05T01:15:29.686Z,100696.34
2023-05-05T01:18:57.286Z,100687.97
2023-05-05T01:22:03.489Z,100685.72
2023-05-05T01:25:24.809Z,100683.84
2023-05-05T01:28:28.775Z,100676.09
2023-05-05T01:31:39.534Z,100686.03
2023-05-05T01:34:45.563Z,100682.59
2023-05-05T01:38:00.856Z,100685.63
2023-05-05T01:41:18.907Z,100679.66
2023-05-05T01:44:24.958Z,100680.41
2023-05-05T01:47:29.566Z,100688.97
2023-05-05T01:50:32.347Z,100689.06
2023-05-05T01:53:36.231Z,100684.69
2023-05-05T01:56:42.377Z,100683.03
2023-05-05T01:59:45.417Z,100679.78
2023-05-05T02:02:50.482Z,100683.03
2023-05-05T02:05:55.550Z,100679.47
2023-05-05T02:08:59.691Z,100676.53
2023-05-05T02:12:04.891Z,100678.72
2023-05-05T02:15:11.666Z,100680.19
2023-05-05T02:18:14.940Z,100679.56
2023-05-05T02:21:24.496Z,100678.22
2023-05-05T02:24:27.695Z,100675.09
2023-05-05T02:27:32.638Z,100679.06
2023-05-05T02:30:37.393Z,100670.91
2023-05-05T02:33:41.278Z,100674.87
2023-05-05T02:36:46.423Z,100670.59
2023-05-05T02:39:59.981Z,100676.53
2023-05-05T02:43:07.516Z,100675.69
2023-05-05T02:46:11.559Z,100668.16
2023-05-05T02:49:24.467Z,100672.03
2023-05-05T02:52:27.797Z,100670.47
2023-05-05T02:55:42.174Z,100669.66
2023-05-05T02:59:08.635Z,100674.78
2023-05-05T03:02:42.267Z,100677.78
2023-05-05T03:06:06.104Z,100677.47
2023-05-05T03:09:46.084Z,100668.50
2023-05-05T03:13:12.107Z,100668.88
2023-05-05T03:16:19.461Z,100675.53
2023-05-05T03:19:42.814Z,100668.25
2023-05-05T03:22:57.315Z,100679.88
2023-05-05T03:26:39.685Z,100669.06
2023-05-05T03:33:28.207Z,100670.75
2023-05-05T03:36:35.013Z,100673.97
2023-05-05T03:39:44.491Z,100677.00
2023-05-05T03:43:02.757Z,100671.88
2023-05-05T03:46:10.309Z,100672.00
2023-05-05T03:49:21.700Z,100676.69
2023-05-05T03:52:27.917Z,100663.97
2023-05-05T03:55:44.815Z,100677.03
2023-05-05T03:59:01.551Z,100681.28
2023-05-05T04:02:09.245Z,100677.84
2023-05-05T04:05:20.898Z,100685.63
2023-05-05T04:08:44.551Z,100690.12
2023-05-05T04:11:56.622Z,100687.28
2023-05-05T04:15:11.499Z,100688.66
2023-05-05T04:18:24.867Z,100697.13
2023-05-05T04:28:12.554Z,100693.94
2023-05-05T04:31:15.608Z,100687.16
2023-05-05T04:34:19.121Z,100696.62
2023-05-05T04:37:22.153Z,100695.16
2023-05-05T04:40:26.788Z,100707.03
2023-05-05T04:43:32.060Z,100703.69
2023-05-05T04:46:36.153Z,100706.72
2023-05-05T04:49:43.266Z,100708.72
2023-05-05T04:52:50.251Z,100715.06
2023-05-05T04:56:01.607Z,100716.88
2023-05-05T04:59:11.840Z,100719.75
2023-05-05T05:02:16.123Z,100725.97
2023-05-05T05:05:19.668Z,100726.47
2023-05-05T05:08:23.075Z,100724.09
2023-05-05T05:11:27.145Z,100730.06
2023-05-05T05:14:30.244Z,100729.81
2023-05-05T05:17:36.790Z,100735.19
2023-05-05T05:20:41.641Z,100735.19
2023-05-05T05:23:51.341Z,100734.78
2023-05-05T05:26:54.974Z,100728.63
2023-05-05T05:29:58.669Z,100743.16
2023-05-05T05:33:02.573Z,100741.38
2023-05-05T05:36:05.307Z,100745.00
2023-05-05T05:39:08.353Z,100747.75
2023-05-05T05:42:14.020Z,100760.94
2023-05-05T05:45:16.809Z,100753.78
2023-05-05T05:48:20.686Z,100760.44
2023-05-05T05:51:23.552Z,100764.53
2023-05-05T05:54:26.248Z,100761.69
2023-05-05T05:57:35.346Z,100768.72
2023-05-05T06:00:38.240Z,100767.41
2023-05-05T06:03:41.268Z,100761.19
2023-05-05T06:06:48.587Z,100767.19
2023-05-05T06:09:51.784Z,100772.13
2023-05-05T06:12:54.628Z,100773.56
2023-05-05T06:16:00.265Z,100768.69
2023-05-05T06:19:04.749Z,100767.03
2023-05-05T06:22:13.846Z,100769.22
2023-05-05T06:25:17.624Z,100771.16
2023-05-05T06:28:25.942Z,100766.19
2023-05-05T06:31:29.688Z,100764.66
2023-05-05T06:34:35.376Z,100757.84
2023-05-05T06:37:44.257Z,100752.03
2023-05-05T06:57:56.905Z,100754.19
2023-05-05T07:01:00.374Z,100756.97
2023-05-05T07:04:02.847Z,100742.94
2023-05-05T07:07:08.594Z,100749.37
2023-05-05T07:10:15.084Z,100749.97
2023-05-05T07:13:18.033Z,100750.38
2023-05-05T07:16:21.267Z,100761.22
2023-05-05T07:19:26.012Z,100765.84
2023-05-05T07:22:29.395Z,100763.72
2023-05-05T07:25:33.273Z,100770.53
2023-05-05T07:28:36.348Z,100776.63
2023-05-05T07:31:39.123Z,100780.38
2023-05-05T07:34:41.682Z,100781.00
2023-05-05T07:37:52.048Z,100775.53
2023-05-05T07:40:56.270Z,100777.47
2023-05-05T07:44:00.830Z,100779.16
2023-05-05T07:47:03.874Z,100779.87
2023-05-05T07:50:09.975Z,100780.53
2023-05-05T08:00:41.211Z,100788.44
2023-05-05T08:04:05.788Z,100794.06
2023-05-05T08:10:35.181Z,100786.41
2023-05-05T08:13:41.625Z,100777.38
2023-05-05T08:16:45.331Z,100765.72
2023-05-05T08:19:49.181Z,100759.06
2023-05-05T08:22:54.221Z,100759.84
2023-05-05T08:26:11.172Z,100750.59
2023-05-05T08:29:20.513Z,100751.06
2023-05-05T08:32:29.840Z,100757.72
2023-05-05T08:35:36.476Z,100755.34
2023-05-05T08:38:43.015Z,100755.87
2023-05-05T08:41:48.322Z,100747.75
2023-05-05T08:44:51.625Z,100745.25
2023-05-05T08:47:57.628Z,100750.91
2023-05-05T08:51:05.241Z,100754.84
2023-05-05T08:54:21.964Z,100750.81
2023-05-05T08:57:43.021Z,100744.41
2023-05-05T09:00:57.011Z,100753.06
2023-05-05T09:04:18.259Z,100748.66
2023-05-05T09:07:25.727Z,100739.75
2023-05-05T09:10:35.537Z,100742.22
2023-05-05T09:13:39.614Z,100738.41
2023-05-05T09:16:47.000Z,100733.47
2023-05-05T09:20:36.708Z,100731.31
2023-05-05T09:23:39.784Z,100729.03
2023-05-05T09:26:48.144Z,100718.34
2023-05-05T09:30:00.157Z,100723.34
2023-05-05T09:33:10.032Z,100716.41
2023-05-05T09:36:20.114Z,100708.25
2023-05-05T09:39:23.890Z,100697.41
2023-05-05T09:42:48.719Z,100697.22
2023-05-05T09:45:52.286Z,100698.03
2023-05-05T09:49:12.115Z,100702.50
2023-05-05T10:16:25.187Z,100689.47
2023-05-05T10:19:33.141Z,100680.31
2023-05-05T10:22:36.636Z,100681.50
2023-05-05T10:25:43.422Z,100679.84
2023-05-05T10:28:57.134Z,100682.47
2023-05-05T10:32:21.501Z,100684.22
2023-05-05T10:35:29.158Z,100672.47
2023-05-05T10:38:31.947Z,100663.78
2023-05-05T10:41:35.274Z,100651.69
2023-05-05T10:44:39.157Z,100656.44
2023-05-05T10:47:50.412Z,100650.25
2023-05-05T10:51:38.687Z,100654.50
2023-05-05T10:55:08.099Z,100650.22
2023-05-05T10:58:43.682Z,100644.00
2023-05-05T11:01:54.469Z,100641.66
2023-05-05T11:05:21.725Z,100635.41
2023-05-05T11:08:28.870Z,100626.56
2023-05-05T11:12:06.196Z,100632.63
2023-05-05T11:15:27.470Z,100624.09
2023-05-05T11:18:36.146Z,100618.56
2023-05-05T11:21:59.693Z,100616.97
2023-05-05T11:25:22.527Z,100619.50
2023-05-05T11:28:30.366Z,100619.81
2023-05-05T11:31:34.963Z,100608.31
2023-05-05T11:34:48.414Z,100607.47
2023-05-05T11:38:03.183Z,100611.84
2023-05-05T11:41:26.307Z,100600.66
2023-05-05T11:44:35.710Z,100597.97
2023-05-05T11:47:38.806Z,100597.94
2023-05-05T11:50:41.673Z,100590.38
2023-05-05T11:53:45.503Z,100588.69
2023-05-05T11:57:00.212Z,100579.66
2023-05-05T12:00:05.113Z,100585.84
2023-05-05T12:03:10.068Z,100581.97
2023-05-05T12:06:13.544Z,100585.63
2023-05-05T12:09:16.420Z,100579.66
2023-05-05T12:12:20.203Z,100580.44
2023-05-05T12:15:29.829Z,100584.91
2023-05-05T12:18:32.730Z,100567.88
2023-05-05T12:21:36.355Z,100562.50
2023-05-05T12:24:41.912Z,100569.34
2023-05-05T12:27:54.716Z,100562.72
2023-05-05T12:31:03.596Z,100558.59
2023-05-05T12:34:07.337Z,100552.63
2023-05-05T12:37:10.161Z,100558.91
2023-05-05T12:40:31.390Z,100552.75
2023-05-05T12:43:34.591Z,100553.88
2023-05-05T12:46:47.321Z,100551.50
2023-05-05T12:49:53.511Z,100550.03
2023-05-05T12:52:56.245Z,100548.56
2023-05-05T12:55:59.209Z,100538.72
2023-05-05T12:59:02.742Z,100536.13
2023-05-05T13:02:05.274Z,100543.03
2023-05-05T13:05:09.232Z,100528.31
2023-05-05T13:08:12.379Z,100531.72
2023-05-05T13:11:15.019Z,100523.00
2023-05-05T13:14:17.711Z,100517.06
2023-05-05T13:17:20.481Z,100516.84
2023-05-05T13:20:23.057Z,100512.69
2023-05-05T13:23:25.903Z,100508.00
2023-05-05T13:26:28.868Z,100494.28
2023-05-05T13:29:32.017Z,100497.84
2023-05-05T13:32:38.744Z,100492.97
2023-05-05T13:35:41.659Z,100486.84
2023-05-05T13:38:45.339Z,100491.41
2023-05-05T13:41:48.517Z,100486.00
2023-05-05T13:44:51.419Z,100478.53
2023-05-05T13:47:53.632Z,100468.94
2023-05-05T13:50:56.340Z,100459.84
2023-05-05T13:53:58.896Z,100466.63
2023-05-05T13:57:01.771Z,100464.19
2023-05-05T14:00:04.743Z,100467.09
2023-05-05T14:03:07.557Z,100467.69
2023-05-05T14:06:11.489Z,100469.56
2023-05-05T14:09:14.285Z,100472.09
2023-05-05T14:12:17.024Z,100466.78
2023-05-05T14:15:20.774Z,100464.09
2023-05-05T14:18:23.154Z,100461.88
2023-05-05T14:21:25.475Z,100452.56
2023-05-05T14:24:28.129Z,100459.59
2023-05-05T14:27:30.498Z,100449.06
2023-05-05T14:30:33.734Z,100450.22
2023-05-05T14:33:36.922Z,100450.44
2023-05-05T14:36:39.353Z,100449.12
2023-05-05T14:39:42.447Z,100442.59
2023-05-05T14:42:54.496Z,100446.00
2023-05-05T14:45:58.499Z,100441.88
2023-05-05T14:49:01.312Z,100444.31
2023-05-05T14:52:05.931Z,100443.00
2023-05-05T14:55:11.607Z,100443.44
2023-05-05T14:58:14.594Z,100437.44
2023-05-05T15:01:17.362Z,100434.28
2023-05-05T15:04:20.618Z,100444.50
2023-05-05T15:07:22.961Z,100442.31
2023-05-05T15:10:25.623Z,100442.16
2023-05-05T15:13:28.806Z,100432.31
2023-05-05T15:16:32.654Z,100429.97
2023-05-05T15:19:37.257Z,100438.00
2023-05-05T15:22:39.625Z,100432.25
2023-05-05T15:25:42.717Z,100437.16
2023-05-05T15:28:45.112Z,100434.81
2023-05-05T15:31:47.631Z,100435.31
2023-05-05T15:34:50.913Z,100433.09
2023-05-05T15:37:54.376Z,100431.91
2023-05-05T15:40:57.176Z,100429.47
2023-05-05T15:44:00.057Z,100422.19
2023-05-05T15:47:02.290Z,100424.84
2023-05-05T15:50:05.946Z,100423.91
2023-05-05T15:53:08.990Z,100421.22
2023-05-05T15:56:12.160Z,100418.19
2023-05-05T15:59:15.552Z,100416.34
2023-05-05T16:02:19.001Z,100408.91
2023-05-05T16:05:23.080Z,100407.53
2023-05-05T16:08:26.227Z,100409.59
2023-05-05T16:11:29.210Z,100409.22
2023-05-05T16:14:34.947Z,100406.47
2023-05-05T16:17:37.768Z,100397.19
2023-05-05T16:20:40.429Z,100396.19
2023-05-05T16:23:43.267Z,100397.28
2023-05-05T16:26:46.431Z,100392.78
2023-05-05T16:29:49.235Z,100397.75
2023-05-05T16:32:53.213Z,100396.84
2023-05-05T16:35:56.588Z,100396.31
2023-05-05T16:38:59.303Z,100391.62
2023-05-05T16:42:03.355Z,100383.97
2023-05-05T16:45:07.663Z,100385.59
2023-05-05T16:48:10.927Z,100387.66
2023-05-05T16:51:13.549Z,100387.81
2023-05-05T16:54:16.753Z,100384.06
2023-05-05T16:57:20.831Z,100376.88
2023-05-05T17:00:23.726Z,100393.53
2023-05-05T17:03:26.953Z,100385.53
2023-05-05T17:06:33.476Z,100387.34
2023-05-05T17:09:36.517Z,100392.44
2023-05-05T17:12:38.940Z,100390.53
2023-05-05T17:15:42.106Z,100391.28
2023-05-05T17:18:44.983Z,100389.03
2023-05-05T17:21:47.578Z,100385.09
2023-05-05T17:24:50.141Z,100377.91
2023-05-05T17:27:53.263Z,100388.56
2023-05-05T17:31:00.123Z,100381.50
2023-05-05T17:34:03.105Z,100381.53
2023-05-05T17:37:06.234Z,100387.34
2023-05-05T17:40:09.290Z,100384.03
2023-05-05T17:43:11.667Z,100387.22
2023-05-05T17:46:17.181Z,100383.91
2023-05-05T17:49:21.948Z,100387.13
2023-05-05T17:52:25.057Z,100385.97
2023-05-05T17:55:28.417Z,100389.41
2023-05-05T17:58:31.372Z,100392.72
2023-05-05T18:01:34.046Z,100389.37
2023-05-05T18:04:37.492Z,100393.63
2023-05-05T18:07:40.037Z,100396.72
2023-05-05T18:10:43.153Z,100400.66
2023-05-05T18:13:46.154Z,100401.09
2023-05-05T18:16:51.196Z,100404.59
2023-05-05T18:19:53.758Z,100399.25
2023-05-05T18:22:56.339Z,100401.66
2023-05-05T18:25:59.167Z,100398.28
2023-05-05T18:29:02.370Z,100404.16
2023-05-05T18:32:06.730Z,100404.91
2023-05-05T18:35:10.893Z,100405.53
2023-05-05T18:38:18.335Z,100404.97
2023-05-05T18:41:21.186Z,100401.84
2023-05-05T18:44:23.644Z,100407.94
2023-05-05T18:47:26.829Z,100402.75
2023-05-05T18:50:30.056Z,100408.41
2023-05-05T18:53:32.486Z,100416.37
2023-05-05T18:56:35.696Z,100413.78
2023-05-05T18:59:38.771Z,100418.12
2023-05-05T19:02:42.241Z,100416.63
2023-05-05T19:05:45.167Z,100416.22
2023-05-05T19:08:48.143Z,100411.84
2023-05-05T19:11:51.552Z,100422.12
2023-05-05T19:14:54.089Z,100418.56
2023-05-05T19:17:56.907Z,100426.22
2023-05-05T19:20:59.430Z,100428.25
2023-05-05T19:24:02.486Z,100422.59
2023-05-05T19:27:05.601Z,100414.44
2023-05-05T19:30:10.946Z,100421.25
2023-05-05T19:33:13.838Z,100418.50
2023-05-05T19:36:17.191Z,100418.09
2023-05-05T19:39:20.715Z,100420.50
2023-05-05T19:42:23.300Z,100417.44
2023-05-05T19:45:25.897Z,100409.44
2023-05-05T19:48:28.723Z,100414.72
2023-05-05T19:51:32.391Z,100415.25
2023-05-05T19:54:35.092Z,100415.97
2023-05-05T19:57:38.110Z,100421.75
2023-05-05T20:00:41.295Z,100415.12
2023-05-05T20:03:44.809Z,100421.62
2023-05-05T20:06:48.635Z,100415.12
2023-05-05T20:09:51.211Z,100412.06
2023-05-05T20:12:54.703Z,100413.87
2023-05-05T20:15:57.355Z,100410.00
2023-05-05T20:19:00.901Z,100413.03
2023-05-05T20:22:04.799Z,100418.69
2023-05-05T20:25:07.155Z,100418.50
2023-05-05T20:28:09.513Z,100413.41
2023-05-05T20:31:12.427Z,100412.16
2023-05-05T20:34:15.578Z,100410.75
2023-05-05T20:37:18.416Z,100409.09
2023-05-05T20:40:22.807Z,100406.59
2023-05-05T20:43:26.085Z,100410.59
2023-05-05T20:46:30.048Z,100397.03
2023-05-05T20:49:33.417Z,100409.06
2023-05-05T20:52:37.642Z,100413.34
2023-05-05T20:55:40.439Z,100414.81
2023-05-05T20:58:43.410Z,100411.59
2023-05-05T21:01:46.661Z,100405.25
2023-05-05T21:04:51.138Z,100406.06
2023-05-05T21:07:54.860Z,100404.25
2023-05-05T21:10:57.440Z,100402.19
2023-05-05T21:14:00.173Z,100402.56
2023-05-05T21:17:03.033Z,100401.22
2023-05-05T21:20:07.392Z,100403.13
2023-05-05T21:23:10.032Z,100394.81
2023-05-05T21:26:12.993Z,100399.22
2023-05-05T21:29:16.918Z,100394.81
2023-05-05T21:32:19.857Z,100392.19
2023-05-05T21:35:22.608Z,100393.16
2023-05-05T21:38:24.862Z,100394.69
2023-05-05T21:41:27.227Z,100382.66
2023-05-05T21:44:29.976Z,100387.09
2023-05-05T21:47:32.910Z,100382.00
2023-05-05T21:50:37.134Z,100376.75
2023-05-05T21:53:41.450Z,100373.31
2023-05-05T21:56:44.465Z,100373.72
2023-05-05T21:59:47.564Z,100373.16
2023-05-05T22:02:50.740Z,100359.59
2023-05-05T22:05:53.770Z,100365.41
2023-05-05T22:09:00.249Z,100370.66
2023-05-05T22:12:03.290Z,100374.25
2023-05-05T22:15:06.486Z,100370.91
2023-05-05T22:18:10.156Z,100369.47
2023-05-05T22:21:12.811Z,100367.41
2023-05-05T22:24:15.577Z,100382.16
2023-05-05T22:27:19.751Z,100375.84
2023-05-05T22:30:22.661Z,100372.94
2023-05-05T22:33:26.972Z,100367.13
2023-05-05T22:36:30.642Z,100380.25
2023-05-05T22:39:34.034Z,100377.97
2023-05-05T22:42:37.217Z,100382.50
2023-05-05T22:45:40.029Z,100393.56
2023-05-05T22:48:42.732Z,100381.12
2023-05-05T22:51:45.376Z,100392.56
2023-05-05T22:54:48.873Z,100392.81
2023-05-05T22:57:52.751Z,100393.34
2023-05-05T23:00:55.322Z,100397.88
2023-05-05T23:03:58.067Z,100386.13
2023-05-05T23:07:01.532Z,100390.75
2023-05-05T23:10:05.552Z,100391.03
2023-05-05T23:13:09.688Z,100386.59
2023-05-05T23:16:12.547Z,100379.13
2023-05-05T23:19:15.261Z,100372.47
2023-05-05T23:22:17.782Z,100380.59
2023-05-05T23:25:20.094Z,100379.87
2023-05-05T23:28:23.017Z,100378.59
2023-05-05T23:31:26.467Z,100371.97
2023-05-05T23:34:29.062Z,100375.87
2023-05-05T23:37:31.585Z,100375.56
2023-05-05T23:40:35.064Z,100372.50
2023-05-05T23:43:37.517Z,100378.00
2023-05-05T23:46:40.743Z,100360.84
2023-05-05T23:49:43.948Z,100358.16
2023-05-05T23:52:49.422Z,100371.50
2023-05-05T23:55:52.797Z,100368.53
2023-05-05T23:58:56.673Z,100377.47
